createdAt,value
2022-12-01T00:00:08.226Z,67.91
2022-12-01T00:02:41.628Z,66.42
2022-12-01T00:05:15.139Z,65.56
2022-12-01T00:07:49.588Z,63.47
2022-12-01T00:10:29.731Z,61.68
2022-12-01T00:13:06.317Z,55.32
2022-12-01T00:15:41.394Z,52.56
2022-12-01T00:18:14.762Z,53.98
2022-12-01T00:20:51.673Z,54.33
2022-12-01T00:23:25.190Z,56.07
2022-12-01T00:26:03.294Z,57.49
2022-12-01T00:28:36.656Z,58.36
2022-12-01T00:31:14.427Z,61.56
2022-12-01T00:33:48.052Z,68.67
2022-12-01T00:36:21.886Z,65.12
2022-12-01T00:38:58.839Z,57.18
2022-12-01T00:41:31.903Z,56.54
2022-12-01T00:44:07.445Z,58.41
2022-12-01T00:46:40.975Z,59.96
2022-12-01T00:49:16.962Z,60.84
2022-12-01T00:51:50.606Z,64.91
2022-12-01T00:54:23.698Z,67.25
2022-12-01T00:57:02.271Z,61.72
2022-12-01T00:59:35.989Z,61.09
2022-12-01T01:02:11.045Z,57.96
2022-12-01T01:04:44.445Z,54.69
2022-12-01T01:07:18.207Z,55.54
2022-12-01T01:09:53.518Z,56.08
2022-12-01T01:12:26.781Z,57.44
2022-12-01T01:15:00.395Z,58.21
2022-12-01T01:17:35.840Z,60.43
2022-12-01T01:20:13.070Z,64.20
2022-12-01T01:22:46.382Z,67.52
2022-12-01T01:25:19.906Z,65.32
2022-12-01T01:27:52.888Z,61.74
2022-12-01T01:30:26.696Z,58.01
2022-12-01T01:33:00.608Z,55.16
2022-12-01T01:35:33.992Z,56.22
2022-12-01T01:38:07.267Z,58.01
2022-12-01T01:40:48.415Z,61.35
2022-12-01T01:43:43.403Z,65.40
2022-12-01T01:46:20.490Z,65.79
2022-12-01T01:49:00.398Z,61.88
2022-12-01T01:51:40.048Z,61.36
2022-12-01T01:54:17.808Z,57.04
2022-12-01T01:56:54.595Z,54.12
2022-12-01T01:59:36.054Z,55.47
2022-12-01T02:02:14.479Z,58.53
2022-12-01T02:04:54.941Z,59.40
2022-12-01T02:07:28.400Z,59.58
2022-12-01T02:10:02.312Z,64.78
2022-12-01T02:13:05.195Z,67.16
2022-12-01T02:15:52.324Z,65.23
2022-12-01T02:18:42.998Z,62.71
2022-12-01T02:21:56.678Z,58.74
2022-12-01T02:25:08.092Z,55.30
2022-12-01T02:28:07.958Z,56.94
2022-12-01T02:30:49.356Z,58.95
2022-12-01T02:33:30.835Z,61.57
2022-12-01T02:36:13.544Z,65.95
2022-12-01T02:38:57.502Z,65.79
2022-12-01T02:41:38.788Z,61.68
2022-12-01T02:44:19.862Z,61.37
2022-12-01T02:47:01.095Z,58.14
2022-12-01T02:49:41.728Z,55.13
2022-12-01T02:52:18.422Z,56.24
2022-12-01T02:54:53.482Z,57.84
2022-12-01T02:57:27.565Z,59.43
2022-12-01T03:00:02.826Z,62.60
2022-12-01T03:02:49.963Z,66.12
2022-12-01T03:05:30.831Z,63.92
2022-12-01T03:08:19.985Z,64.44
2022-12-01T03:10:59.454Z,60.03
2022-12-01T03:13:44.864Z,57.21
2022-12-01T03:16:27.902Z,57.19
2022-12-01T03:19:07.514Z,58.99
2022-12-01T03:21:46.076Z,63.58
2022-12-01T03:24:24.096Z,65.11
2022-12-01T03:27:02.065Z,62.41
2022-12-01T03:29:41.667Z,60.86
2022-12-01T03:32:20.392Z,57.10
2022-12-01T03:34:59.529Z,54.68
2022-12-01T03:37:37.965Z,56.01
2022-12-01T03:40:18.577Z,59.16
2022-12-01T03:43:00.987Z,59.76
2022-12-01T03:45:43.220Z,61.50
2022-12-01T03:48:16.710Z,66.62
2022-12-01T03:51:04.289Z,67.62
2022-12-01T03:53:50.766Z,63.97
2022-12-01T03:56:32.046Z,61.20
2022-12-01T03:59:11.025Z,58.12
2022-12-01T04:01:44.531Z,55.44
2022-12-01T04:04:18.702Z,57.43
2022-12-01T04:06:53.349Z,59.91
2022-12-01T04:09:26.687Z,60.99
2022-12-01T04:12:17.350Z,64.61
2022-12-01T04:14:50.859Z,66.84
2022-12-01T04:17:24.374Z,64.93
2022-12-01T04:19:59.179Z,61.56
2022-12-01T04:22:33.075Z,58.29
2022-12-01T04:25:06.898Z,56.25
2022-12-01T04:27:41.363Z,56.50
2022-12-01T04:30:16.704Z,57.92
2022-12-01T04:32:49.802Z,59.04
2022-12-01T04:35:23.200Z,64.17
2022-12-01T04:37:56.274Z,66.16
2022-12-01T04:40:29.911Z,64.07
2022-12-01T04:43:03.645Z,61.39
2022-12-01T04:45:36.891Z,60.93
2022-12-01T04:48:10.669Z,57.45
2022-12-01T04:50:45.495Z,55.15
2022-12-01T04:53:18.876Z,58.03
2022-12-01T04:55:52.266Z,58.55
2022-12-01T04:58:26.334Z,59.13
2022-12-01T05:01:05.726Z,60.98
2022-12-01T05:03:41.881Z,64.26
2022-12-01T05:06:18.503Z,67.00
2022-12-01T05:08:53.626Z,68.18
2022-12-01T05:11:27.931Z,64.41
2022-12-01T05:14:01.011Z,62.10
2022-12-01T05:16:45.634Z,61.99
2022-12-01T05:19:42.043Z,58.91
2022-12-01T05:22:15.486Z,53.67
2022-12-01T05:24:48.874Z,53.57
2022-12-01T05:27:22.215Z,54.39
2022-12-01T05:29:56.308Z,56.12
2022-12-01T05:32:30.315Z,57.11
2022-12-01T05:35:03.345Z,57.98
2022-12-01T05:37:36.419Z,59.06
2022-12-01T05:40:12.944Z,60.79
2022-12-01T05:42:46.161Z,65.54
2022-12-01T05:45:20.366Z,69.76
2022-12-01T05:47:55.894Z,65.84
2022-12-01T05:50:31.479Z,63.20
2022-12-01T05:53:05.357Z,62.88
2022-12-01T05:55:40.054Z,62.11
2022-12-01T05:58:13.590Z,62.70
2022-12-01T06:00:48.045Z,58.20
2022-12-01T06:03:21.969Z,54.03
2022-12-01T06:05:57.788Z,54.13
2022-12-01T06:08:32.690Z,54.39
2022-12-01T06:11:07.640Z,56.38
2022-12-01T06:13:41.436Z,58.85
2022-12-01T06:16:15.928Z,60.61
2022-12-01T06:18:48.977Z,67.16
2022-12-01T06:21:22.868Z,65.24
2022-12-01T06:23:56.533Z,65.44
2022-12-01T06:26:29.802Z,64.52
2022-12-01T06:29:05.240Z,62.82
2022-12-01T06:31:39.254Z,58.74
2022-12-01T06:34:13.855Z,55.44
2022-12-01T06:36:47.319Z,55.19
2022-12-01T06:39:22.081Z,56.19
2022-12-01T06:41:55.773Z,59.13
2022-12-01T06:44:30.508Z,60.78
2022-12-01T06:47:04.341Z,63.47
2022-12-01T06:49:38.582Z,65.31
2022-12-01T06:52:12.930Z,65.40
2022-12-01T06:54:46.990Z,63.66
2022-12-01T06:57:20.493Z,60.88
2022-12-01T06:59:54.134Z,56.79
2022-12-01T07:02:28.192Z,54.93
2022-12-01T07:05:01.395Z,55.47
2022-12-01T07:07:36.667Z,58.60
2022-12-01T07:10:14.125Z,60.20
2022-12-01T07:12:47.468Z,63.65
2022-12-01T07:15:24.711Z,65.71
2022-12-01T07:17:58.104Z,63.72
2022-12-01T07:20:32.928Z,62.02
2022-12-01T07:23:06.773Z,57.36
2022-12-01T07:25:40.180Z,56.12
2022-12-01T07:28:14.018Z,57.05
2022-12-01T07:30:48.180Z,57.94
2022-12-01T07:33:21.719Z,59.84
2022-12-01T07:35:58.477Z,61.19
2022-12-01T07:38:33.904Z,63.89
2022-12-01T07:41:12.667Z,66.95
2022-12-01T07:43:48.032Z,65.61
2022-12-01T07:46:24.439Z,63.71
2022-12-01T07:48:59.726Z,60.05
2022-12-01T07:51:33.575Z,56.97
2022-12-01T07:54:09.575Z,56.83
2022-12-01T07:56:43.678Z,59.78
2022-12-01T07:59:17.441Z,61.09
2022-12-01T08:01:53.050Z,65.42
2022-12-01T08:04:26.438Z,65.60
2022-12-01T08:06:59.798Z,62.69
2022-12-01T08:09:33.801Z,60.89
2022-12-01T08:12:08.043Z,58.27
2022-12-01T08:14:41.473Z,57.50
2022-12-01T08:17:15.131Z,59.31
2022-12-01T08:19:49.294Z,60.39
2022-12-01T08:22:23.702Z,61.03
2022-12-01T08:24:57.582Z,64.68
2022-12-01T08:27:31.077Z,65.65
2022-12-01T08:30:08.004Z,64.65
2022-12-01T08:32:42.214Z,63.04
2022-12-01T08:35:15.919Z,63.70
2022-12-01T08:37:49.639Z,58.86
2022-12-01T08:40:23.634Z,55.80
2022-12-01T08:42:58.677Z,56.35
2022-12-01T08:45:34.664Z,59.79
2022-12-01T08:48:08.802Z,59.76
2022-12-01T08:50:42.590Z,63.22
2022-12-01T08:53:16.237Z,65.57
2022-12-01T08:55:49.908Z,65.41
2022-12-01T08:58:23.008Z,61.93
2022-12-01T09:01:02.093Z,57.79
2022-12-01T09:03:36.930Z,54.78
2022-12-01T09:06:15.358Z,56.32
2022-12-01T09:08:49.746Z,57.57
2022-12-01T09:11:24.423Z,61.00
2022-12-01T09:13:57.801Z,64.69
2022-12-01T09:16:33.538Z,64.13
2022-12-01T09:19:07.915Z,61.01
2022-12-01T09:21:43.170Z,57.85
2022-12-01T09:24:20.066Z,55.62
2022-12-01T09:26:58.326Z,57.83
2022-12-01T09:29:31.926Z,56.97
2022-12-01T09:32:05.442Z,57.94
2022-12-01T09:34:40.183Z,58.74
2022-12-01T09:37:13.458Z,63.45
2022-12-01T09:39:47.961Z,65.53
2022-12-01T09:42:32.271Z,64.22
2022-12-01T09:45:27.581Z,61.73
2022-12-01T09:48:04.906Z,56.09
2022-12-01T09:50:39.828Z,53.69
2022-12-01T09:53:19.380Z,55.09
2022-12-01T09:56:00.728Z,55.32
2022-12-01T09:58:39.618Z,58.33
2022-12-01T10:01:27.058Z,60.25
2022-12-01T10:04:07.505Z,59.81
2022-12-01T10:06:51.019Z,64.93
2022-12-01T10:09:33.198Z,67.62
2022-12-01T10:12:18.066Z,66.45
2022-12-01T10:14:53.985Z,61.55
2022-12-01T10:17:45.029Z,55.99
2022-12-01T10:20:28.555Z,54.44
2022-12-01T10:23:43.860Z,56.77
2022-12-01T10:26:29.027Z,60.22
2022-12-01T10:29:25.343Z,60.32
2022-12-01T10:32:04.479Z,63.76
2022-12-01T10:34:43.661Z,66.82
2022-12-01T10:37:28.401Z,65.17
2022-12-01T10:40:04.577Z,62.71
2022-12-01T10:42:43.223Z,60.84
2022-12-01T10:45:25.785Z,57.27
2022-12-01T10:48:19.408Z,55.44
2022-12-01T10:51:00.051Z,55.91
2022-12-01T10:53:42.862Z,56.69
2022-12-01T10:56:21.818Z,57.53
2022-12-01T10:58:59.437Z,60.02
2022-12-01T11:01:36.681Z,64.76
2022-12-01T11:04:31.213Z,66.78
2022-12-01T11:07:06.556Z,65.47
2022-12-01T11:09:39.918Z,60.62
2022-12-01T11:12:20.899Z,56.50
2022-12-01T11:14:57.658Z,56.16
2022-12-01T11:17:41.935Z,57.90
2022-12-01T11:20:39.451Z,59.18
2022-12-01T11:23:36.684Z,62.42
2022-12-01T11:26:18.053Z,65.92
2022-12-01T11:29:01.481Z,64.55
2022-12-01T11:31:48.872Z,60.49
2022-12-01T11:34:28.125Z,56.65
2022-12-01T11:37:04.714Z,57.52
2022-12-01T11:39:41.924Z,59.43
2022-12-01T11:42:27.316Z,60.57
2022-12-01T11:45:10.295Z,60.61
2022-12-01T11:48:11.378Z,62.35
2022-12-01T11:51:03.887Z,67.78
2022-12-01T11:53:39.851Z,64.89
2022-12-01T11:56:29.424Z,62.29
2022-12-01T11:59:08.157Z,61.35
2022-12-01T12:02:01.742Z,56.36
2022-12-01T12:04:58.357Z,56.33
2022-12-01T12:07:48.098Z,57.73
2022-12-01T12:10:38.384Z,58.94
2022-12-01T12:13:40.789Z,60.23
2022-12-01T12:16:31.923Z,65.42
2022-12-01T12:19:39.257Z,65.73
2022-12-01T12:22:38.471Z,62.91
2022-12-01T12:25:38.809Z,61.38
2022-12-01T12:28:37.976Z,55.91
2022-12-01T12:31:27.071Z,55.60
2022-12-01T12:34:25.866Z,57.95
2022-12-01T12:37:19.415Z,60.02
2022-12-01T12:40:24.523Z,63.69
2022-12-01T12:43:27.251Z,64.07
2022-12-01T12:46:24.911Z,60.99
2022-12-01T12:49:27.339Z,58.19
2022-12-01T12:52:10.403Z,56.01
2022-12-01T12:54:53.982Z,55.76
2022-12-01T12:57:42.013Z,60.41
2022-12-01T13:00:26.199Z,62.82
2022-12-01T13:03:06.502Z,65.37
2022-12-01T13:05:49.509Z,64.77
2022-12-01T13:08:30.730Z,63.18
2022-12-01T13:11:16.217Z,60.08
2022-12-01T13:14:02.448Z,54.21
2022-12-01T13:16:45.067Z,55.91
2022-12-01T13:19:27.999Z,57.58
2022-12-01T13:22:03.625Z,59.62
2022-12-01T13:24:37.817Z,60.75
2022-12-01T13:27:22.213Z,60.67
2022-12-01T13:29:59.642Z,65.00
2022-12-01T13:32:40.642Z,67.52
2022-12-01T13:35:30.863Z,63.21
2022-12-01T13:38:31.594Z,61.71
2022-12-01T13:41:31.906Z,57.97
2022-12-01T13:44:22.418Z,55.89
2022-12-01T13:47:07.358Z,59.02
2022-12-01T13:49:50.827Z,59.62
2022-12-01T13:52:52.201Z,60.56
2022-12-01T13:55:35.470Z,66.51
2022-12-01T13:58:49.269Z,66.81
2022-12-01T14:02:12.452Z,62.87
2022-12-01T14:04:46.221Z,56.45
2022-12-01T14:07:39.853Z,55.84
2022-12-01T14:10:28.305Z,57.65
2022-12-01T14:13:07.360Z,59.96
2022-12-01T14:15:45.371Z,63.57
2022-12-01T14:18:51.694Z,64.67
2022-12-01T14:21:48.786Z,62.62
2022-12-01T14:24:36.265Z,58.69
2022-12-01T14:27:12.994Z,55.92
2022-12-01T14:29:46.835Z,57.62
2022-12-01T14:32:29.662Z,59.44
2022-12-01T14:35:17.469Z,61.24
2022-12-01T14:37:53.974Z,62.01
2022-12-01T14:40:35.398Z,65.88
2022-12-01T14:43:33.568Z,64.28
2022-12-01T14:46:13.211Z,62.45
2022-12-01T14:48:49.828Z,57.67
2022-12-01T14:51:32.750Z,55.29
2022-12-01T14:54:30.069Z,56.78
2022-12-01T14:57:12.407Z,58.98
2022-12-01T15:00:04.843Z,60.73
2022-12-01T15:02:48.919Z,60.32
2022-12-01T15:05:26.094Z,66.58
2022-12-01T15:08:40.255Z,67.01
2022-12-01T15:11:23.262Z,63.49
2022-12-01T15:13:58.964Z,56.26
2022-12-01T15:16:43.656Z,53.54
2022-12-01T15:19:33.870Z,54.91
2022-12-01T15:22:16.323Z,56.92
2022-12-01T15:24:51.552Z,59.38
2022-12-01T15:27:32.230Z,60.04
2022-12-01T15:30:08.237Z,62.66
2022-12-01T15:32:46.071Z,66.42
2022-12-01T15:35:25.765Z,65.49
2022-12-01T15:38:01.124Z,62.43
2022-12-01T15:43:40.337Z,54.84
2022-12-01T15:46:20.165Z,56.25
2022-12-01T15:49:18.778Z,59.35
2022-12-01T15:51:53.828Z,60.16
2022-12-01T15:54:28.870Z,63.00
2022-12-01T15:57:04.151Z,63.67
2022-12-01T15:59:43.292Z,62.55
2022-12-01T16:02:32.189Z,61.52
2022-12-01T16:05:18.123Z,56.05
2022-12-01T16:10:46.296Z,56.07
2022-12-01T16:14:00.075Z,57.21
2022-12-01T16:16:49.554Z,59.12
2022-12-01T16:19:36.500Z,62.42
2022-12-01T16:22:22.594Z,64.86
2022-12-01T16:24:58.323Z,63.61
2022-12-01T16:27:35.109Z,58.12
2022-12-01T16:30:25.440Z,55.45
2022-12-01T16:33:08.674Z,55.33
2022-12-01T16:35:42.070Z,59.24
2022-12-01T16:38:22.703Z,61.44
2022-12-01T16:41:00.476Z,64.93
2022-12-01T16:43:34.114Z,63.73
2022-12-01T16:46:14.235Z,58.97
2022-12-01T16:48:47.853Z,56.56
2022-12-01T16:51:35.449Z,56.71
2022-12-01T16:54:17.133Z,59.62
2022-12-01T16:56:51.808Z,60.20
2022-12-01T16:59:25.366Z,63.16
2022-12-01T17:01:59.059Z,65.84
2022-12-01T17:04:32.511Z,63.66
2022-12-01T17:07:06.320Z,60.27
2022-12-01T17:09:40.686Z,56.72
2022-12-01T17:12:14.554Z,56.99
2022-12-01T17:14:48.522Z,59.30
2022-12-01T17:17:23.225Z,59.93
2022-12-01T17:19:58.492Z,61.09
2022-12-01T17:22:32.921Z,61.67
2022-12-01T17:25:09.994Z,61.58
2022-12-01T17:27:44.542Z,66.36
2022-12-01T17:30:19.822Z,66.39
2022-12-01T17:32:53.728Z,62.39
2022-12-01T17:35:27.943Z,59.20
2022-12-01T17:38:01.667Z,55.42
2022-12-01T17:40:36.219Z,55.70
2022-12-01T17:43:11.956Z,56.72
2022-12-01T17:45:46.259Z,60.37
2022-12-01T17:48:19.785Z,60.27
2022-12-01T17:50:53.970Z,61.07
2022-12-01T17:53:28.402Z,64.85
2022-12-01T17:56:01.801Z,64.42
2022-12-01T17:58:35.948Z,62.36
2022-12-01T18:01:13.325Z,60.89
2022-12-01T18:03:49.026Z,55.69
2022-12-01T18:06:23.657Z,54.74
2022-12-01T18:08:58.900Z,56.20
2022-12-01T18:11:33.842Z,59.11
2022-12-01T18:14:07.569Z,62.54
2022-12-01T18:16:41.028Z,64.19
2022-12-01T18:19:16.427Z,64.23
2022-12-01T18:21:51.331Z,55.72
2022-12-01T18:24:24.941Z,52.43
2022-12-01T18:26:59.701Z,52.50
2022-12-01T18:29:34.515Z,55.94
2022-12-01T18:32:08.788Z,57.88
2022-12-01T18:34:42.331Z,56.71
2022-12-01T18:37:16.320Z,60.31
2022-12-01T18:39:49.709Z,60.29
2022-12-01T18:42:24.777Z,61.55
2022-12-01T18:44:58.881Z,65.28
2022-12-01T18:47:33.259Z,69.43
2022-12-01T18:50:08.152Z,64.51
2022-12-01T18:52:41.817Z,59.59
2022-12-01T18:55:15.924Z,55.01
2022-12-01T18:57:49.762Z,54.87
2022-12-01T19:00:25.115Z,58.25
2022-12-01T19:02:58.978Z,59.51
2022-12-01T19:05:33.692Z,58.01
2022-12-01T19:08:08.467Z,59.88
2022-12-01T19:10:41.880Z,59.91
2022-12-01T19:13:15.193Z,61.02
2022-12-01T19:15:48.953Z,60.67
2022-12-01T19:18:22.526Z,64.16
2022-12-01T19:20:57.177Z,68.12
2022-12-01T19:23:32.533Z,66.93
2022-12-01T19:26:08.541Z,62.71
2022-12-01T19:28:45.867Z,59.46
2022-12-01T19:31:25.607Z,54.45
2022-12-01T19:34:00.338Z,54.90
2022-12-01T19:36:34.796Z,56.04
2022-12-01T19:39:08.458Z,55.76
2022-12-01T19:41:43.736Z,57.93
2022-12-01T19:44:17.412Z,59.83
2022-12-01T19:46:52.075Z,61.67
2022-12-01T19:49:25.981Z,66.46
2022-12-01T19:51:59.790Z,65.12
2022-12-01T19:54:35.562Z,61.74
2022-12-01T19:57:09.563Z,57.95
2022-12-01T19:59:42.949Z,55.88
2022-12-01T20:02:23.866Z,57.13
2022-12-01T20:04:59.783Z,58.94
2022-12-01T20:07:33.789Z,61.16
2022-12-01T20:10:08.118Z,63.70
2022-12-01T20:12:41.576Z,66.63
2022-12-01T20:15:16.747Z,63.25
2022-12-01T20:17:51.282Z,58.55
2022-12-01T20:20:25.635Z,56.15
2022-12-01T20:22:59.224Z,56.69
2022-12-01T20:25:32.861Z,60.37
2022-12-01T20:28:06.783Z,60.08
2022-12-01T20:30:44.836Z,59.97
2022-12-01T20:33:18.760Z,62.59
2022-12-01T20:35:52.809Z,67.03
2022-12-01T20:38:27.817Z,65.96
2022-12-01T20:41:01.500Z,61.85
2022-12-01T20:43:35.744Z,56.69
2022-12-01T20:46:10.785Z,56.47
2022-12-01T20:48:44.598Z,58.05
2022-12-01T20:51:19.627Z,58.17
2022-12-01T20:54:19.720Z,59.74
2022-12-01T20:56:47.222Z,60.48
2022-12-01T20:59:20.439Z,63.78
2022-12-01T21:01:53.938Z,63.57
2022-12-01T21:04:28.331Z,61.11
2022-12-01T21:07:02.984Z,59.11
2022-12-01T21:09:37.309Z,55.79
2022-12-01T21:12:36.210Z,55.90
2022-12-01T21:15:24.186Z,57.98
2022-12-01T21:18:04.722Z,59.41
2022-12-01T21:20:44.354Z,62.07
2022-12-01T21:23:20.440Z,64.90
2022-12-01T21:25:54.388Z,66.33
2022-12-01T21:28:29.634Z,61.22
2022-12-01T21:31:12.557Z,57.85
2022-12-01T21:33:47.524Z,55.53
2022-12-01T21:36:24.385Z,56.30
2022-12-01T21:39:15.786Z,58.33
2022-12-01T21:41:49.426Z,61.12
2022-12-01T21:44:29.666Z,63.53
2022-12-01T21:47:18.531Z,64.48
2022-12-01T21:49:55.974Z,58.86
2022-12-01T21:52:36.098Z,57.14
2022-12-01T21:55:35.284Z,57.92
2022-12-01T21:58:36.224Z,60.64
2022-12-01T22:01:24.905Z,60.74
2022-12-01T22:04:02.707Z,63.56
2022-12-01T22:06:42.268Z,66.99
2022-12-01T22:09:26.050Z,61.68
2022-12-01T22:12:07.237Z,57.84
2022-12-01T22:14:41.959Z,54.78
2022-12-01T22:17:23.395Z,56.38
2022-12-01T22:20:02.614Z,58.32
2022-12-01T22:22:39.666Z,60.37
2022-12-01T22:25:26.910Z,61.93
2022-12-01T22:28:03.421Z,64.36
2022-12-01T22:30:37.019Z,62.87
2022-12-01T22:33:21.603Z,61.64
2022-12-01T22:35:57.104Z,57.48
2022-12-01T22:38:40.890Z,55.45
2022-12-01T22:41:17.807Z,57.15
2022-12-01T22:43:55.008Z,59.65
2022-12-01T22:46:33.830Z,61.62
2022-12-01T22:49:22.597Z,63.71
2022-12-01T22:52:02.400Z,60.06
2022-12-01T22:54:43.650Z,56.86
2022-12-01T22:57:35.256Z,57.92
2022-12-01T23:00:22.037Z,59.88
2022-12-01T23:03:00.328Z,62.89
2022-12-01T23:05:37.618Z,61.44
2022-12-01T23:08:17.816Z,58.12
2022-12-01T23:10:52.637Z,56.59
2022-12-01T23:13:27.714Z,57.83
2022-12-01T23:16:01.206Z,57.21
2022-12-01T23:18:36.390Z,58.85
2022-12-01T23:21:13.702Z,60.71
2022-12-01T23:23:47.384Z,64.68
2022-12-01T23:26:20.612Z,65.99
2022-12-01T23:28:53.859Z,62.84
2022-12-01T23:31:28.306Z,59.33
2022-12-01T23:34:01.537Z,55.09
2022-12-01T23:36:37.115Z,56.07
2022-12-01T23:39:17.983Z,56.05
2022-12-01T23:41:53.312Z,58.63
2022-12-01T23:44:40.538Z,60.96
2022-12-01T23:47:24.023Z,64.20
2022-12-01T23:50:02.300Z,65.64
2022-12-01T23:52:40.170Z,64.23
2022-12-01T23:55:23.788Z,59.71
2022-12-01T23:57:58.420Z,55.04
